createdAt,value
2023-04-06T00:00:23.492Z,89.38
2023-04-06T00:02:54.012Z,105.80
2023-04-06T00:05:24.988Z,81.82
2023-04-06T00:07:56.112Z,79.45
2023-04-06T00:10:25.408Z,73.88
2023-04-06T00:12:54.749Z,69.43
2023-04-06T00:15:24.074Z,63.20
2023-04-06T00:17:53.227Z,62.25
2023-04-06T00:20:22.685Z,70.32
2023-04-06T00:22:51.543Z,61.75
2023-04-06T00:25:20.712Z,63.22
2023-04-06T00:27:49.579Z,70.90
2023-04-06T00:30:18.940Z,73.82
2023-04-06T00:32:47.938Z,65.70
2023-04-06T00:35:17.765Z,81.35
2023-04-06T00:37:50.152Z,67.15
2023-04-06T00:40:19.602Z,55.28
2023-04-06T00:42:48.568Z,63.95
2023-04-06T00:45:17.820Z,59.63
2023-04-06T00:47:46.751Z,60.28
2023-04-06T00:50:16.525Z,105.15
2023-04-06T00:52:45.481Z,101.60
2023-04-06T00:55:14.975Z,71.13
2023-04-06T00:57:45.990Z,73.18
2023-04-06T01:00:15.943Z,68.95
2023-04-06T01:02:48.403Z,52.05
2023-04-06T01:05:21.913Z,73.00
2023-04-06T01:07:57.801Z,68.10
2023-04-06T01:13:15.350Z,68.70
2023-04-06T01:16:05.169Z,71.80
2023-04-06T01:18:54.363Z,93.78
2023-04-06T01:21:32.035Z,73.55
2023-04-06T01:24:19.781Z,81.70
2023-04-06T01:27:20.860Z,77.18
2023-04-06T01:30:22.481Z,79.20
2023-04-06T01:32:59.321Z,79.15
2023-04-06T01:35:48.556Z,91.07
2023-04-06T01:38:20.780Z,95.85
2023-04-06T01:40:51.219Z,111.35
2023-04-06T01:43:24.251Z,118.07
2023-04-06T01:46:23.362Z,139.43
2023-04-06T01:48:53.885Z,120.75
2023-04-06T01:51:34.715Z,149.73
2023-04-06T01:54:06.432Z,135.13
2023-04-06T01:56:58.405Z,138.55
2023-04-06T01:59:34.537Z,136.40
2023-04-06T02:02:09.798Z,126.38
2023-04-06T02:04:40.844Z,134.55
2023-04-06T02:07:13.706Z,123.30
2023-04-06T02:09:42.928Z,108.65
2023-04-06T02:12:18.552Z,105.82
2023-04-06T02:14:47.566Z,103.20
2023-04-06T02:17:16.945Z,109.07
2023-04-06T02:19:46.080Z,99.90
2023-04-06T02:22:15.086Z,101.78
2023-04-06T02:24:44.157Z,101.40
2023-04-06T02:27:13.211Z,93.70
2023-04-06T02:29:42.386Z,102.07
2023-04-06T02:32:11.701Z,127.35
2023-04-06T02:34:40.923Z,107.18
2023-04-06T02:37:09.911Z,111.45
2023-04-06T02:39:38.948Z,110.80
2023-04-06T02:42:10.849Z,113.00
2023-04-06T02:44:40.006Z,103.68
2023-04-06T02:47:10.700Z,84.53
2023-04-06T02:49:42.173Z,89.03
2023-04-06T02:52:11.624Z,90.82
2023-04-06T02:54:40.392Z,72.47
2023-04-06T02:57:10.361Z,72.38
2023-04-06T02:59:43.543Z,69.72
2023-04-06T03:02:28.248Z,67.57
2023-04-06T03:05:06.463Z,69.88
2023-04-06T03:07:40.149Z,83.10
2023-04-06T03:10:13.963Z,84.82
2023-04-06T03:12:43.677Z,78.53
2023-04-06T03:15:22.772Z,62.67
2023-04-06T03:18:02.264Z,57.97
2023-04-06T03:20:39.459Z,45.30
2023-04-06T03:23:08.853Z,44.05
2023-04-06T03:25:42.163Z,50.47
2023-04-06T03:28:16.588Z,49.97
2023-04-06T03:31:05.714Z,39.58
2023-04-06T03:34:01.343Z,32.15
2023-04-06T03:36:34.269Z,33.45
2023-04-06T03:39:05.382Z,37.88
2023-04-06T03:41:37.871Z,29.23
2023-04-06T03:44:15.574Z,32.45
2023-04-06T03:46:46.339Z,26.67
2023-04-06T03:49:15.520Z,24.17
2023-04-06T03:51:47.898Z,42.95
2023-04-06T03:54:17.427Z,34.70
2023-04-06T03:56:46.833Z,37.15
2023-04-06T03:59:16.100Z,30.55
2023-04-06T04:01:45.009Z,24.00
2023-04-06T04:04:13.961Z,17.40
2023-04-06T04:06:42.689Z,32.25
2023-04-06T04:09:11.780Z,22.30
2023-04-06T04:11:40.688Z,20.70
2023-04-06T04:14:09.924Z,24.27
2023-04-06T04:16:38.935Z,25.35
2023-04-06T04:19:08.310Z,21.30
2023-04-06T04:21:48.191Z,19.83
2023-04-06T04:24:22.100Z,26.13
2023-04-06T04:26:51.328Z,21.67
2023-04-06T04:29:23.110Z,17.42
2023-04-06T04:31:54.642Z,17.45
2023-04-06T04:34:26.941Z,16.27
2023-04-06T04:36:56.056Z,25.00
2023-04-06T04:39:35.576Z,29.45
2023-04-06T04:42:08.209Z,22.27
2023-04-06T04:44:41.989Z,13.23
2023-04-06T04:51:12.339Z,15.77
2023-04-06T04:54:06.191Z,18.38
2023-04-06T04:56:35.858Z,10.52
2023-04-06T04:59:23.469Z,16.70
2023-04-06T05:02:00.238Z,14.98
2023-04-06T05:04:40.055Z,15.00
2023-04-06T05:07:13.026Z,8.13
2023-04-06T05:09:44.126Z,18.35
2023-04-06T05:12:14.768Z,8.32
2023-04-06T05:14:56.874Z,7.07
2023-04-06T05:17:26.812Z,13.77
2023-04-06T05:19:57.356Z,15.93
2023-04-06T05:22:29.322Z,22.48
2023-04-06T05:25:08.204Z,22.33
2023-04-06T05:27:38.299Z,21.30
2023-04-06T05:30:13.046Z,37.80
2023-04-06T05:32:48.108Z,18.83
2023-04-06T05:35:18.038Z,18.05
2023-04-06T05:37:51.434Z,25.30
2023-04-06T05:40:24.382Z,11.18
2023-04-06T05:42:54.073Z,9.82
2023-04-06T05:45:23.629Z,18.90
2023-04-06T05:47:57.340Z,22.10
2023-04-06T05:50:31.130Z,9.43
2023-04-06T05:53:00.796Z,26.60
2023-04-06T05:55:35.857Z,35.03
2023-04-06T05:58:35.350Z,11.75
2023-04-06T06:01:08.824Z,10.25
2023-04-06T06:03:43.001Z,8.05
2023-04-06T06:06:12.537Z,9.75
2023-04-06T06:09:05.579Z,12.10
2023-04-06T06:11:40.114Z,12.00
2023-04-06T06:14:10.522Z,32.20
2023-04-06T06:16:42.726Z,22.10
2023-04-06T06:19:15.076Z,12.77
2023-04-06T06:21:45.931Z,11.32
2023-04-06T06:24:15.733Z,17.63
2023-04-06T06:26:45.241Z,21.88
2023-04-06T06:29:16.942Z,10.95
2023-04-06T06:31:46.975Z,10.82
2023-04-06T06:34:16.454Z,15.07
2023-04-06T06:36:47.867Z,11.45
2023-04-06T06:39:18.616Z,6.60
2023-04-06T06:41:48.502Z,15.90
2023-04-06T06:44:18.784Z,10.30
2023-04-06T06:46:48.314Z,10.70
2023-04-06T06:49:17.615Z,12.02
2023-04-06T06:51:48.558Z,13.75
2023-04-06T06:54:18.442Z,8.70
2023-04-06T06:56:48.045Z,19.30
2023-04-06T06:59:18.419Z,12.52
2023-04-06T07:01:48.144Z,22.15
2023-04-06T07:04:17.676Z,12.60
2023-04-06T07:06:47.517Z,20.98
2023-04-06T07:09:16.868Z,12.50
2023-04-06T07:11:47.003Z,11.73
2023-04-06T07:14:19.428Z,22.63
2023-04-06T07:16:51.265Z,26.27
2023-04-06T07:19:21.198Z,10.77
2023-04-06T07:21:51.747Z,11.13
2023-04-06T07:24:21.109Z,9.32
2023-04-06T07:26:50.500Z,11.90
2023-04-06T07:29:20.276Z,9.98
2023-04-06T07:31:51.240Z,17.13
2023-04-06T07:34:20.961Z,16.20
2023-04-06T07:36:50.361Z,18.30
2023-04-06T07:39:19.851Z,13.63
2023-04-06T07:41:49.550Z,20.65
2023-04-06T07:44:19.323Z,10.45
2023-04-06T07:46:49.253Z,47.13
2023-04-06T07:49:19.847Z,20.00
2023-04-06T07:51:49.313Z,13.15
2023-04-06T07:54:18.640Z,17.48
2023-04-06T07:56:48.586Z,25.75
2023-04-06T07:59:18.190Z,18.10
2023-04-06T08:01:47.838Z,24.27
2023-04-06T08:04:17.212Z,52.50
2023-04-06T08:06:47.078Z,27.33
2023-04-06T08:09:16.463Z,24.75
2023-04-06T08:11:46.932Z,38.55
2023-04-06T08:14:17.488Z,16.55
2023-04-06T08:16:47.558Z,25.10
2023-04-06T08:19:19.244Z,14.77
2023-04-06T08:21:49.712Z,16.13
2023-04-06T08:24:19.132Z,18.75
2023-04-06T08:26:48.386Z,30.45
2023-04-06T08:29:18.541Z,27.17
2023-04-06T08:31:47.814Z,42.15
2023-04-06T08:34:17.231Z,22.88
2023-04-06T08:36:48.216Z,25.17
2023-04-06T08:39:17.609Z,13.68
2023-04-06T08:41:47.095Z,17.33
2023-04-06T08:44:17.196Z,22.88
2023-04-06T08:46:47.103Z,6.97
2023-04-06T08:49:18.647Z,17.33
2023-04-06T08:51:53.816Z,14.43
2023-04-06T08:54:23.483Z,17.33
2023-04-06T08:56:54.594Z,14.77
2023-04-06T08:59:25.918Z,4.97
2023-04-06T09:01:57.656Z,14.77
2023-04-06T09:04:28.931Z,12.38
2023-04-06T09:07:04.086Z,11.30
2023-04-06T09:09:33.696Z,15.50
2023-04-06T09:12:07.791Z,12.52
2023-04-06T09:14:41.622Z,15.18
2023-04-06T09:17:11.228Z,13.35
2023-04-06T09:19:50.123Z,7.05
2023-04-06T09:22:20.698Z,18.08
2023-04-06T09:24:52.928Z,10.32
2023-04-06T09:30:15.469Z,13.07
2023-04-06T09:32:49.210Z,17.50
2023-04-06T09:35:19.738Z,19.42
2023-04-06T09:37:51.655Z,12.85
2023-04-06T09:40:23.563Z,9.35
2023-04-06T09:42:55.096Z,14.00
2023-04-06T09:45:24.774Z,13.00
2023-04-06T09:47:55.954Z,12.02
2023-04-06T09:50:27.113Z,11.18
2023-04-06T09:53:07.862Z,19.70
2023-04-06T09:55:48.705Z,17.20
2023-04-06T09:58:28.292Z,11.68
2023-04-06T10:01:18.191Z,16.88
2023-04-06T10:04:09.950Z,15.70
2023-04-06T10:06:41.128Z,29.25
2023-04-06T10:09:11.628Z,22.42
2023-04-06T10:11:41.339Z,16.17
2023-04-06T10:14:10.992Z,19.50
2023-04-06T10:16:41.271Z,27.45
2023-04-06T10:19:19.391Z,27.17
2023-04-06T10:21:53.571Z,21.42
2023-04-06T10:24:23.594Z,16.95
2023-04-06T10:27:05.235Z,27.17
2023-04-06T10:29:50.691Z,33.28
2023-04-06T10:32:20.211Z,22.17
2023-04-06T10:34:49.499Z,19.80
2023-04-06T10:37:21.263Z,15.05
2023-04-06T10:40:00.345Z,23.77
2023-04-06T10:42:42.416Z,31.80
2023-04-06T10:45:23.118Z,24.08
2023-04-06T10:47:55.859Z,26.70
2023-04-06T10:53:05.229Z,30.63
2023-04-06T10:55:36.957Z,26.73
2023-04-06T10:58:09.766Z,21.65
2023-04-06T11:00:50.602Z,30.35
2023-04-06T11:03:21.768Z,29.23
2023-04-06T11:05:53.660Z,18.02
2023-04-06T11:08:31.017Z,17.90
2023-04-06T11:11:07.847Z,23.08
2023-04-06T11:13:46.791Z,27.02
2023-04-06T11:16:26.277Z,23.95
2023-04-06T11:18:58.277Z,16.77
2023-04-06T11:21:45.274Z,20.20
2023-04-06T11:24:15.571Z,27.52
2023-04-06T11:26:50.574Z,16.27
2023-04-06T11:29:24.937Z,17.73
2023-04-06T11:32:03.154Z,23.90
2023-04-06T11:34:38.987Z,47.72
2023-04-06T11:37:14.058Z,35.85
2023-04-06T11:39:51.541Z,35.42
2023-04-06T11:42:29.132Z,33.92
2023-04-06T11:45:02.490Z,30.63
2023-04-06T11:47:40.021Z,38.72
2023-04-06T11:50:16.782Z,34.38
2023-04-06T11:52:46.781Z,43.58
2023-04-06T11:55:23.092Z,44.08
2023-04-06T11:57:53.788Z,31.30
2023-04-06T12:00:24.102Z,39.10
2023-04-06T12:02:54.059Z,27.90
2023-04-06T12:05:27.182Z,28.20
2023-04-06T12:07:57.480Z,21.70
2023-04-06T12:10:28.574Z,27.88
2023-04-06T12:12:57.760Z,23.27
2023-04-06T12:15:29.725Z,20.48
2023-04-06T12:17:59.098Z,19.40
2023-04-06T12:20:28.395Z,23.50
2023-04-06T12:22:58.110Z,12.25
2023-04-06T12:25:27.314Z,17.30
2023-04-06T12:27:56.898Z,21.00
2023-04-06T12:30:26.485Z,20.92
2023-04-06T12:32:55.970Z,14.98
2023-04-06T12:35:25.232Z,21.20
2023-04-06T12:37:54.718Z,15.27
2023-04-06T12:40:23.981Z,16.20
2023-04-06T12:42:53.307Z,26.70
2023-04-06T12:45:22.687Z,32.85
2023-04-06T12:47:53.331Z,18.48
2023-04-06T12:50:22.933Z,23.55
2023-04-06T12:52:52.138Z,24.25
2023-04-06T12:55:22.901Z,28.13
2023-04-06T12:57:52.331Z,45.70
2023-04-06T13:00:22.477Z,45.05
2023-04-06T13:02:52.212Z,44.95
2023-04-06T13:05:21.587Z,52.40
2023-04-06T13:07:50.933Z,52.05
2023-04-06T13:10:20.113Z,54.25
2023-04-06T13:12:49.472Z,48.90
2023-04-06T13:15:18.729Z,57.78
2023-04-06T13:17:48.334Z,43.55
2023-04-06T13:20:17.604Z,61.78
2023-04-06T13:22:47.154Z,49.90
2023-04-06T13:25:16.629Z,57.08
2023-04-06T13:27:48.246Z,59.55
2023-04-06T13:30:18.248Z,58.95
2023-04-06T13:32:47.487Z,51.30
2023-04-06T13:35:17.010Z,41.35
2023-04-06T13:37:46.977Z,47.38
2023-04-06T13:40:16.480Z,54.25
2023-04-06T13:42:47.231Z,69.55
2023-04-06T13:45:17.320Z,70.00
2023-04-06T13:47:47.662Z,85.35
2023-04-06T13:50:17.188Z,75.72
2023-04-06T13:52:46.708Z,67.15
2023-04-06T13:55:16.818Z,81.50
2023-04-06T13:57:46.081Z,77.32
2023-04-06T14:00:16.914Z,67.70
2023-04-06T14:02:46.500Z,76.55
2023-04-06T14:05:15.977Z,60.33
2023-04-06T14:07:45.530Z,69.25
2023-04-06T14:10:16.289Z,79.10
2023-04-06T14:12:48.649Z,55.83
2023-04-06T14:15:18.507Z,67.72
2023-04-06T14:17:47.848Z,75.05
2023-04-06T14:20:17.431Z,78.63
2023-04-06T14:22:46.788Z,65.70
2023-04-06T14:25:16.030Z,58.50
2023-04-06T14:27:46.548Z,64.72
2023-04-06T14:30:16.887Z,53.10
2023-04-06T14:32:46.480Z,47.08
2023-04-06T14:35:15.822Z,47.92
2023-04-06T14:37:45.997Z,60.72
2023-04-06T14:40:15.297Z,30.05
2023-04-06T14:42:44.734Z,39.10
2023-04-06T14:45:14.122Z,39.03
2023-04-06T14:47:43.501Z,44.05
2023-04-06T14:50:13.319Z,35.03
2023-04-06T14:52:42.644Z,41.15
2023-04-06T14:55:11.869Z,35.40
2023-04-06T14:57:41.506Z,24.20
2023-04-06T15:00:11.525Z,37.13
2023-04-06T15:02:42.379Z,24.02
2023-04-06T15:05:13.059Z,30.02
2023-04-06T15:07:42.521Z,52.28
2023-04-06T15:10:12.528Z,66.20
2023-04-06T15:13:15.583Z,44.95
2023-04-06T15:15:53.720Z,44.38
2023-04-06T15:18:23.068Z,59.65
2023-04-06T15:20:52.661Z,50.10
2023-04-06T15:23:22.071Z,58.67
2023-04-06T15:25:51.818Z,59.90
2023-04-06T15:28:21.326Z,69.30
2023-04-06T15:30:50.474Z,94.82
2023-04-06T15:33:22.271Z,115.40
2023-04-06T15:35:51.567Z,144.48
2023-04-06T15:38:20.671Z,179.60
2023-04-06T15:40:51.644Z,209.07
2023-04-06T15:43:20.997Z,208.07
2023-04-06T15:45:50.081Z,179.07
2023-04-06T15:48:20.343Z,141.30
2023-04-06T15:50:49.758Z,126.53
2023-04-06T15:53:18.758Z,102.53
2023-04-06T15:55:48.129Z,119.32
2023-04-06T15:58:17.260Z,114.60
2023-04-06T16:00:46.555Z,71.88
2023-04-06T16:03:15.941Z,55.03
2023-04-06T16:05:59.186Z,60.08
2023-04-06T16:08:34.281Z,48.80
2023-04-06T16:11:03.531Z,50.83
2023-04-06T16:13:32.940Z,67.63
2023-04-06T16:16:02.563Z,78.53
2023-04-06T16:18:34.107Z,72.43
2023-04-06T16:21:06.484Z,59.65
2023-04-06T16:23:36.017Z,82.18
2023-04-06T16:26:14.050Z,54.05
2023-04-06T16:28:43.965Z,47.15
2023-04-06T16:31:23.332Z,51.55
2023-04-06T16:33:57.367Z,66.80
2023-04-06T16:36:30.918Z,69.82
2023-04-06T16:39:03.402Z,65.53
2023-04-06T16:41:33.807Z,77.15
2023-04-06T16:44:46.467Z,72.25
2023-04-06T16:47:18.917Z,97.53
2023-04-06T16:52:17.383Z,90.30
2023-04-06T16:54:47.134Z,83.88
2023-04-06T16:57:16.603Z,78.25
2023-04-06T16:59:45.863Z,65.13
2023-04-06T17:02:15.547Z,74.93
2023-04-06T17:04:45.312Z,65.57
2023-04-06T17:07:14.635Z,83.15
2023-04-06T17:09:43.873Z,78.28
2023-04-06T17:12:14.667Z,63.88
2023-04-06T17:14:44.159Z,67.05
2023-04-06T17:17:13.549Z,68.40
2023-04-06T17:19:42.971Z,84.03
2023-04-06T17:22:12.242Z,114.90
2023-04-06T17:24:41.627Z,99.30
2023-04-06T17:27:10.752Z,112.03
2023-04-06T17:29:40.187Z,72.05
2023-04-06T17:32:09.404Z,85.40
2023-04-06T17:34:38.807Z,86.40
2023-04-06T17:37:08.107Z,95.75
2023-04-06T17:39:37.865Z,91.05
2023-04-06T17:42:07.234Z,86.22
2023-04-06T17:44:36.613Z,81.60
2023-04-06T17:47:05.756Z,65.57
2023-04-06T17:49:35.227Z,65.45
2023-04-06T17:52:04.517Z,72.45
2023-04-06T17:54:34.943Z,100.63
2023-04-06T17:57:05.159Z,81.15
2023-04-06T17:59:34.411Z,86.45
2023-04-06T18:02:05.325Z,94.13
2023-04-06T18:04:34.900Z,89.18
2023-04-06T18:07:04.425Z,83.38
2023-04-06T18:09:33.940Z,80.63
2023-04-06T18:12:03.547Z,82.88
2023-04-06T18:14:33.691Z,86.97
2023-04-06T18:17:02.934Z,85.78
2023-04-06T18:19:33.430Z,91.70
2023-04-06T18:22:02.926Z,104.80
2023-04-06T18:24:41.134Z,92.60
2023-04-06T18:27:14.175Z,105.72
2023-04-06T18:29:48.476Z,112.60
2023-04-06T18:32:18.084Z,111.20
2023-04-06T18:34:47.284Z,104.80
2023-04-06T18:37:17.297Z,112.05
2023-04-06T18:39:46.879Z,115.85
2023-04-06T18:42:15.943Z,152.52
2023-04-06T18:44:45.291Z,142.00
2023-04-06T18:47:14.512Z,149.75
2023-04-06T18:49:43.953Z,155.15
2023-04-06T18:52:13.070Z,158.55
2023-04-06T18:54:42.431Z,166.52
2023-04-06T18:57:12.311Z,142.75
2023-04-06T18:59:41.776Z,160.10
2023-04-06T19:02:11.095Z,171.70
2023-04-06T19:04:40.713Z,165.30
2023-04-06T19:07:09.861Z,165.18
2023-04-06T19:09:39.253Z,159.63
2023-04-06T19:12:08.363Z,146.80
2023-04-06T19:14:37.719Z,169.05
2023-04-06T19:17:06.932Z,127.60
2023-04-06T19:19:36.354Z,147.57
2023-04-06T19:22:05.494Z,175.02
2023-04-06T19:24:34.895Z,227.25
2023-04-06T19:27:04.340Z,246.10
2023-04-06T19:29:33.571Z,215.18
2023-04-06T19:32:03.209Z,195.57
2023-04-06T19:34:32.655Z,192.35
2023-04-06T19:37:02.188Z,203.50
2023-04-06T19:39:32.396Z,184.20
2023-04-06T19:42:02.048Z,180.52
2023-04-06T19:44:31.366Z,168.82
2023-04-06T19:47:01.085Z,167.27
2023-04-06T19:49:30.434Z,162.70
2023-04-06T19:51:59.942Z,140.75
2023-04-06T19:54:29.093Z,134.93
2023-04-06T19:56:58.445Z,112.70
2023-04-06T19:59:27.545Z,94.43
2023-04-06T20:01:59.244Z,90.80
2023-04-06T20:04:32.373Z,99.95
2023-04-06T20:07:04.239Z,100.53
2023-04-06T20:09:35.538Z,126.05
2023-04-06T20:12:06.857Z,136.32
2023-04-06T20:14:38.533Z,156.25
2023-04-06T20:17:09.807Z,141.23
2023-04-06T20:19:41.972Z,134.85
2023-04-06T20:22:13.405Z,130.00
2023-04-06T20:24:44.957Z,129.63
2023-04-06T20:27:16.393Z,116.47
2023-04-06T20:29:48.407Z,143.23
2023-04-06T20:32:23.080Z,106.97
2023-04-06T20:34:55.435Z,112.85
2023-04-06T20:37:28.459Z,107.90
2023-04-06T20:39:58.687Z,130.82
2023-04-06T20:42:34.725Z,140.32
2023-04-06T20:45:10.751Z,115.25
2023-04-06T20:47:44.705Z,113.20
2023-04-06T20:50:17.283Z,127.63
2023-04-06T20:52:54.788Z,106.07
2023-04-06T20:55:28.669Z,106.85
2023-04-06T20:58:04.721Z,101.75
2023-04-06T21:00:45.107Z,78.47
2023-04-06T21:03:21.367Z,75.93
2023-04-06T21:06:03.899Z,77.20
2023-04-06T21:08:39.873Z,63.03
2023-04-06T21:11:20.194Z,83.07
2023-04-06T21:13:56.349Z,80.30
2023-04-06T21:16:32.400Z,70.40
2023-04-06T21:19:08.558Z,58.55
2023-04-06T21:21:44.600Z,65.43
2023-04-06T21:24:20.647Z,55.85
2023-04-06T21:26:56.737Z,46.00
2023-04-06T21:29:30.834Z,51.88
2023-04-06T21:32:07.000Z,57.30
2023-04-06T21:34:43.638Z,42.55
2023-04-06T21:37:19.805Z,42.88
2023-04-06T21:39:56.213Z,62.13
2023-04-06T21:42:28.733Z,62.08
2023-04-06T21:45:04.257Z,58.15
2023-04-06T21:47:40.400Z,49.30
2023-04-06T21:50:18.767Z,53.78
2023-04-06T21:52:54.687Z,56.38
2023-04-06T21:55:29.210Z,73.38
2023-04-06T21:58:05.483Z,52.17
2023-04-06T22:00:41.748Z,45.25
2023-04-06T22:03:18.230Z,53.72
2023-04-06T22:05:53.850Z,46.05
2023-04-06T22:08:33.680Z,42.10
2023-04-06T22:11:15.017Z,50.88
2023-04-06T22:13:49.985Z,34.38
2023-04-06T22:16:25.506Z,45.67
2023-04-06T22:19:01.806Z,49.17
2023-04-06T22:21:37.830Z,45.78
2023-04-06T22:24:13.693Z,40.85
2023-04-06T22:26:48.125Z,40.13
2023-04-06T22:29:23.335Z,36.30
2023-04-06T22:31:57.982Z,43.95
2023-04-06T22:34:34.075Z,42.95
2023-04-06T22:37:08.223Z,45.28
2023-04-06T22:39:44.298Z,40.20
2023-04-06T22:42:18.513Z,49.33
2023-04-06T22:44:54.751Z,41.53
2023-04-06T22:47:31.026Z,53.40
2023-04-06T22:50:08.702Z,43.80
2023-04-06T22:52:42.855Z,38.88
2023-04-06T22:55:19.081Z,41.30
2023-04-06T22:57:55.256Z,67.88
2023-04-06T23:00:29.383Z,48.80
2023-04-06T23:03:05.851Z,50.10
2023-04-06T23:05:42.109Z,73.40
2023-04-06T23:08:18.297Z,60.10
2023-04-06T23:10:56.002Z,63.03
2023-04-06T23:13:30.408Z,71.18
2023-04-06T23:16:04.677Z,59.97
2023-04-06T23:18:40.782Z,62.03
2023-04-06T23:21:15.019Z,69.85
2023-04-06T23:23:49.751Z,77.38
2023-04-06T23:26:25.221Z,79.95
2023-04-06T23:29:00.814Z,94.68
2023-04-06T23:31:34.761Z,70.88
2023-04-06T23:34:09.027Z,99.80
2023-04-06T23:36:43.275Z,101.47
2023-04-06T23:39:19.321Z,95.25
2023-04-06T23:41:55.137Z,97.80
2023-04-06T23:44:34.281Z,99.15
2023-04-06T23:47:10.466Z,113.38
2023-04-06T23:49:46.734Z,115.35
2023-04-06T23:52:22.618Z,137.60
2023-04-06T23:54:58.988Z,124.03
2023-04-06T23:57:33.905Z,122.85
